sensor_id;sensor_type;location;lat;lon;timestamp;pressure;altitude;pressure_sealevel;temperature;humidity
74075;BME280;62428;51.412;5.432;2023-02-28T00:00:46;102887.44;;;-0.07;72.58
74075;BME280;62428;51.412;5.432;2023-02-28T00:03:11;102890.06;;;-0.07;72.39
74075;BME280;62428;51.412;5.432;2023-02-28T00:05:37;102897.00;;;-0.06;72.77
74075;BME280;62428;51.412;5.432;2023-02-28T00:08:03;102890.72;;;-0.05;72.20
74075;BME280;62428;51.412;5.432;2023-02-28T00:10:30;102895.19;;;-0.05;71.93
74075;BME280;62428;51.412;5.432;2023-02-28T00:13:00;102903.63;;;-0.10;72.45
74075;BME280;62428;51.412;5.432;2023-02-28T00:15:26;102894.88;;;-0.10;72.37
74075;BME280;62428;51.412;5.432;2023-02-28T00:17:52;102895.22;;;-0.13;72.53
74075;BME280;62428;51.412;5.432;2023-02-28T00:20:17;102895.56;;;-0.16;72.43
74075;BME280;62428;51.412;5.432;2023-02-28T00:22:45;102890.63;;;-0.20;72.99
74075;BME280;62428;51.412;5.432;2023-02-28T00:25:14;102892.59;;;-0.22;73.02
74075;BME280;62428;51.412;5.432;2023-02-28T00:27:41;102896.22;;;-0.23;72.69
74075;BME280;62428;51.412;5.432;2023-02-28T00:30:09;102892.94;;;-0.25;73.27
74075;BME280;62428;51.412;5.432;2023-02-28T00:32:35;102894.75;;;-0.25;73.12
74075;BME280;62428;51.412;5.432;2023-02-28T00:35:01;102896.56;;;-0.26;72.81
74075;BME280;62428;51.412;5.432;2023-02-28T00:37:27;102891.47;;;-0.27;72.95
74075;BME280;62428;51.412;5.432;2023-02-28T00:39:52;102898.53;;;-0.28;73.16
74075;BME280;62428;51.412;5.432;2023-02-28T00:42:18;102895.09;;;-0.28;72.93
74075;BME280;62428;51.412;5.432;2023-02-28T00:44:43;102897.72;;;-0.28;73.14
74075;BME280;62428;51.412;5.432;2023-02-28T00:47:08;102903.81;;;-0.28;73.25
74075;BME280;62428;51.412;5.432;2023-02-28T00:49:34;102893.25;;;-0.28;72.89
74075;BME280;62428;51.412;5.432;2023-02-28T00:51:59;102902.84;;;-0.27;73.41
74075;BME280;62428;51.412;5.432;2023-02-28T00:54:25;102896.25;;;-0.31;73.77
74075;BME280;62428;51.412;5.432;2023-02-28T00:56:50;102895.59;;;-0.33;73.39
74075;BME280;62428;51.412;5.432;2023-02-28T00:59:16;102902.69;;;-0.33;73.52
74075;BME280;62428;51.412;5.432;2023-02-28T01:01:44;102896.09;;;-0.37;73.44
74075;BME280;62428;51.412;5.432;2023-02-28T01:04:09;102907.66;;;-0.39;73.54
74075;BME280;62428;51.412;5.432;2023-02-28T01:06:35;102899.06;;;-0.41;73.50
74075;BME280;62428;51.412;5.432;2023-02-28T01:09:02;102903.53;;;-0.41;73.44
74075;BME280;62428;51.412;5.432;2023-02-28T01:11:28;102906.34;;;-0.43;73.87
74075;BME280;62428;51.412;5.432;2023-02-28T01:13:54;102915.06;;;-0.42;73.71
74075;BME280;62428;51.412;5.432;2023-02-28T01:16:19;102912.28;;;-0.41;73.58
74075;BME280;62428;51.412;5.432;2023-02-28T01:18:45;102907.00;;;-0.41;73.73
74075;BME280;62428;51.412;5.432;2023-02-28T01:21:13;102910.47;;;-0.40;73.37
74075;BME280;62428;51.412;5.432;2023-02-28T01:23:40;102912.09;;;-0.39;73.69
74075;BME280;62428;51.412;5.432;2023-02-28T01:26:07;102901.53;;;-0.39;73.94
74075;BME280;62428;51.412;5.432;2023-02-28T01:28:33;102913.94;;;-0.40;73.26
74075;BME280;62428;51.412;5.432;2023-02-28T01:30:59;102913.78;;;-0.38;73.51
74075;BME280;62428;51.412;5.432;2023-02-28T01:33:24;102912.09;;;-0.39;74.25
74075;BME280;62428;51.412;5.432;2023-02-28T01:35:57;102915.91;;;-0.42;73.69
74075;BME280;62428;51.412;5.432;2023-02-28T01:38:23;102912.63;;;-0.44;73.86
74075;BME280;62428;51.412;5.432;2023-02-28T01:40:49;102911.63;;;-0.43;73.98
74075;BME280;62428;51.412;5.432;2023-02-28T01:43:25;102909.13;;;-0.44;73.53
74075;BME280;62428;51.412;5.432;2023-02-28T01:45:52;102908.16;;;-0.43;73.75
74075;BME280;62428;51.412;5.432;2023-02-28T01:48:18;102899.59;;;-0.45;74.12
74075;BME280;62428;51.412;5.432;2023-02-28T01:50:46;102900.72;;;-0.48;73.58
74075;BME280;62428;51.412;5.432;2023-02-28T01:53:18;102906.84;;;-0.47;73.96
74075;BME280;62428;51.412;5.432;2023-02-28T01:55:48;102900.72;;;-0.48;74.46
74075;BME280;62428;51.412;5.432;2023-02-28T01:58:15;102899.09;;;-0.49;74.39
74075;BME280;62428;51.412;5.432;2023-02-28T02:00:41;102892.16;;;-0.50;74.23
74075;BME280;62428;51.412;5.432;2023-02-28T02:03:12;102882.59;;;-0.51;74.23
74075;BME280;62428;51.412;5.432;2023-02-28T02:05:39;102885.06;;;-0.49;74.19
74075;BME280;62428;51.412;5.432;2023-02-28T02:08:09;102887.03;;;-0.51;74.22
74075;BME280;62428;51.412;5.432;2023-02-28T02:16:32;102876.66;;;-0.53;73.86
74075;BME280;62428;51.412;5.432;2023-02-28T02:30:56;102864.91;;;-0.59;74.01
74075;BME280;62428;51.412;5.432;2023-02-28T02:36:41;102855.53;;;-0.61;74.56
74075;BME280;62428;51.412;5.432;2023-02-28T02:41:46;102854.22;;;-0.65;74.72
74075;BME280;62428;51.412;5.432;2023-02-28T02:44:37;102862.31;;;-0.67;74.57
74075;BME280;62428;51.412;5.432;2023-02-28T02:47:12;102865.28;;;-0.70;74.83
74075;BME280;62428;51.412;5.432;2023-02-28T02:49:42;102867.25;;;-0.72;74.61
74075;BME280;62428;51.412;5.432;2023-02-28T02:52:13;102860.16;;;-0.71;74.65
74075;BME280;62428;51.412;5.432;2023-02-28T02:54:43;102861.16;;;-0.72;74.91
74075;BME280;62428;51.412;5.432;2023-02-28T02:57:22;102866.75;;;-0.75;74.78
74075;BME280;62428;51.412;5.432;2023-02-28T02:59:51;102867.09;;;-0.79;74.80
74075;BME280;62428;51.412;5.432;2023-02-28T03:02:17;102876.00;;;-0.80;75.21
74075;BME280;62428;51.412;5.432;2023-02-28T03:04:46;102866.44;;;-0.81;74.78
74075;BME280;62428;51.412;5.432;2023-02-28T03:07:14;102862.00;;;-0.80;74.90
74075;BME280;62428;51.412;5.432;2023-02-28T03:09:39;102874.34;;;-0.81;75.09
74075;BME280;62428;51.412;5.432;2023-02-28T03:12:09;102871.56;;;-0.79;75.13
74075;BME280;62428;51.412;5.432;2023-02-28T03:20:05;102862.66;;;-0.78;75.09
74075;BME280;62428;51.412;5.432;2023-02-28T03:26:02;102866.94;;;-0.77;74.63
74075;BME280;62428;51.412;5.432;2023-02-28T03:28:42;102866.09;;;-0.78;74.56
74075;BME280;62428;51.412;5.432;2023-02-28T03:33:43;102861.81;;;-0.79;75.20
74075;BME280;62428;51.412;5.432;2023-02-28T03:36:16;102863.31;;;-0.76;74.84
74075;BME280;62428;51.412;5.432;2023-02-28T03:38:50;102864.94;;;-0.75;74.94
74075;BME280;62428;51.412;5.432;2023-02-28T03:41:52;102863.81;;;-0.72;74.56
74075;BME280;62428;51.412;5.432;2023-02-28T03:44:24;102865.63;;;-0.73;74.76
74075;BME280;62428;51.412;5.432;2023-02-28T03:47:00;102871.56;;;-0.71;75.11
74075;BME280;62428;51.412;5.432;2023-02-28T03:49:32;102866.94;;;-0.69;74.34
74075;BME280;62428;51.412;5.432;2023-02-28T03:52:02;102866.78;;;-0.67;74.84
74075;BME280;62428;51.412;5.432;2023-02-28T03:54:32;102868.41;;;-0.66;74.93
74075;BME280;62428;51.412;5.432;2023-02-28T03:57:20;102871.22;;;-0.68;74.71
74075;BME280;62428;51.412;5.432;2023-02-28T03:59:59;102868.41;;;-0.66;74.89
74075;BME280;62428;51.412;5.432;2023-02-28T04:02:25;102876.47;;;-0.68;74.84
74075;BME280;62428;51.412;5.432;2023-02-28T04:04:51;102873.84;;;-0.68;74.99
74075;BME280;62428;51.412;5.432;2023-02-28T04:07:16;102869.41;;;-0.67;74.97
74075;BME280;62428;51.412;5.432;2023-02-28T04:09:42;102869.41;;;-0.67;74.44
74075;BME280;62428;51.412;5.432;2023-02-28T04:12:08;102877.50;;;-0.69;74.78
74075;BME280;62428;51.412;5.432;2023-02-28T04:14:33;102878.16;;;-0.67;75.08
74075;BME280;62428;51.412;5.432;2023-02-28T04:16:58;102877.16;;;-0.66;74.97
74075;BME280;62428;51.412;5.432;2023-02-28T04:19:24;102875.19;;;-0.64;75.04
74075;BME280;62428;51.412;5.432;2023-02-28T04:21:51;102875.84;;;-0.62;74.84
74075;BME280;62428;51.412;5.432;2023-02-28T04:24:22;102872.03;;;-0.59;75.14
74075;BME280;62428;51.412;5.432;2023-02-28T04:26:52;102875.47;;;-0.59;74.95
74075;BME280;62428;51.412;5.432;2023-02-28T04:29:20;102879.78;;;-0.57;74.58
74075;BME280;62428;51.412;5.432;2023-02-28T04:31:47;102880.59;;;-0.57;74.80
74075;BME280;62428;51.412;5.432;2023-02-28T04:34:12;102879.63;;;-0.56;74.46
74075;BME280;62428;51.412;5.432;2023-02-28T04:36:37;102882.91;;;-0.54;74.86
74075;BME280;62428;51.412;5.432;2023-02-28T04:39:03;102876.81;;;-0.54;74.91
74075;BME280;62428;51.412;5.432;2023-02-28T04:41:29;102882.91;;;-0.54;74.95
74075;BME280;62428;51.412;5.432;2023-02-28T04:43:54;102884.59;;;-0.53;75.13
74075;BME280;62428;51.412;5.432;2023-02-28T04:46:21;102881.75;;;-0.51;74.97
74075;BME280;62428;51.412;5.432;2023-02-28T04:48:47;102889.50;;;-0.50;74.65
74075;BME280;62428;51.412;5.432;2023-02-28T04:51:14;102884.22;;;-0.50;74.79
74075;BME280;62428;51.412;5.432;2023-02-28T04:53:41;102885.06;;;-0.49;75.04
74075;BME280;62428;51.412;5.432;2023-02-28T04:56:09;102883.09;;;-0.47;75.39
74075;BME280;62428;51.412;5.432;2023-02-28T04:58:36;102879.44;;;-0.46;74.93
74075;BME280;62428;51.412;5.432;2023-02-28T05:01:06;102889.84;;;-0.45;75.31
74075;BME280;62428;51.412;5.432;2023-02-28T05:03:40;102884.38;;;-0.43;75.33
74075;BME280;62428;51.412;5.432;2023-02-28T05:06:10;102888.50;;;-0.41;74.51
74075;BME280;62428;51.412;5.432;2023-02-28T05:08:35;102892.00;;;-0.40;74.92
74075;BME280;62428;51.412;5.432;2023-02-28T05:11:02;102886.50;;;-0.39;74.68
74075;BME280;62428;51.412;5.432;2023-02-28T05:13:27;102882.88;;;-0.37;75.33
74075;BME280;62428;51.412;5.432;2023-02-28T05:15:53;102885.03;;;-0.33;75.21
74075;BME280;62428;51.412;5.432;2023-02-28T05:18:18;102891.78;;;-0.30;74.87
74075;BME280;62428;51.412;5.432;2023-02-28T05:20:44;102903.00;;;-0.28;75.26
74075;BME280;62428;51.412;5.432;2023-02-28T05:23:11;102903.00;;;-0.28;75.04
74075;BME280;62428;51.412;5.432;2023-02-28T05:25:38;102899.38;;;-0.27;74.92
74075;BME280;62428;51.412;5.432;2023-02-28T05:28:04;102901.19;;;-0.28;75.14
74075;BME280;62428;51.412;5.432;2023-02-28T05:30:29;102899.38;;;-0.27;75.04
74075;BME280;62428;51.412;5.432;2023-02-28T05:32:55;102904.69;;;-0.27;74.95
74075;BME280;62428;51.412;5.432;2023-02-28T05:35:20;102902.03;;;-0.27;75.10
74075;BME280;62428;51.412;5.432;2023-02-28T05:37:46;102910.78;;;-0.27;75.56
74075;BME280;62428;51.412;5.432;2023-02-28T05:40:11;102900.19;;;-0.27;75.16
74075;BME280;62428;51.412;5.432;2023-02-28T05:42:38;102905.50;;;-0.27;75.73
74075;BME280;62428;51.412;5.432;2023-02-28T05:45:04;102912.59;;;-0.27;75.00
74075;BME280;62428;51.412;5.432;2023-02-28T05:47:30;102903.81;;;-0.28;74.95
74075;BME280;62428;51.412;5.432;2023-02-28T05:49:56;102905.50;;;-0.27;75.51
74075;BME280;62428;51.412;5.432;2023-02-28T05:52:21;102903.66;;;-0.26;75.23
74075;BME280;62428;51.412;5.432;2023-02-28T05:54:47;102907.13;;;-0.26;75.35
74075;BME280;62428;51.412;5.432;2023-02-28T05:57:13;102902.03;;;-0.27;75.24
74075;BME280;62428;51.412;5.432;2023-02-28T05:59:38;102906.31;;;-0.26;75.03
74075;BME280;62428;51.412;5.432;2023-02-28T06:02:06;102905.50;;;-0.27;75.20
74075;BME280;62428;51.412;5.432;2023-02-28T06:04:35;102901.19;;;-0.28;74.78
74075;BME280;62428;51.412;5.432;2023-02-28T06:07:01;102898.38;;;-0.26;74.73
74075;BME280;62428;51.412;5.432;2023-02-28T06:09:27;102906.31;;;-0.26;74.79
74075;BME280;62428;51.412;5.432;2023-02-28T06:11:52;102912.59;;;-0.27;74.51
74075;BME280;62428;51.412;5.432;2023-02-28T06:14:19;102904.69;;;-0.27;74.03
74075;BME280;62428;51.412;5.432;2023-02-28T06:16:44;102918.88;;;-0.28;74.78
74075;BME280;62428;51.412;5.432;2023-02-28T06:19:10;102912.75;;;-0.29;74.89
74075;BME280;62428;51.412;5.432;2023-02-28T06:21:36;102916.38;;;-0.30;74.87
74075;BME280;62428;51.412;5.432;2023-02-28T06:24:03;102918.03;;;-0.29;74.94
74075;BME280;62428;51.412;5.432;2023-02-28T06:26:28;102919.69;;;-0.28;75.26
74075;BME280;62428;51.412;5.432;2023-02-28T06:28:54;102910.13;;;-0.29;75.30
74075;BME280;62428;51.412;5.432;2023-02-28T06:31:20;102922.31;;;-0.28;75.36
74075;BME280;62428;51.412;5.432;2023-02-28T06:33:46;102923.16;;;-0.27;74.57
74075;BME280;62428;51.412;5.432;2023-02-28T06:36:14;102926.78;;;-0.28;75.01
74075;BME280;62428;51.412;5.432;2023-02-28T06:38:41;102927.59;;;-0.28;74.64
74075;BME280;62428;51.412;5.432;2023-02-28T06:41:07;102932.72;;;-0.26;74.27
74075;BME280;62428;51.412;5.432;2023-02-28T06:43:35;102930.09;;;-0.26;74.08
74075;BME280;62428;51.412;5.432;2023-02-28T06:46:05;102928.25;;;-0.26;73.89
74075;BME280;62428;51.412;5.432;2023-02-28T06:48:30;102928.09;;;-0.24;73.57
74075;BME280;62428;51.412;5.432;2023-02-28T06:51:08;102928.75;;;-0.22;73.01
74075;BME280;62428;51.412;5.432;2023-02-28T06:53:34;102932.06;;;-0.20;72.25
74075;BME280;62428;51.412;5.432;2023-02-28T06:55:59;102937.84;;;-0.16;72.22
74075;BME280;62428;51.412;5.432;2023-02-28T06:58:28;102934.03;;;-0.14;71.44
74075;BME280;62428;51.412;5.432;2023-02-28T07:00:54;102937.16;;;-0.10;71.90
74075;BME280;62428;51.412;5.432;2023-02-28T07:03:19;102937.66;;;-0.07;71.46
74075;BME280;62428;51.412;5.432;2023-02-28T07:05:45;102945.06;;;-0.02;69.97
74075;BME280;62428;51.412;5.432;2023-02-28T07:08:11;102951.84;;;0.01;70.00
74075;BME280;62428;51.412;5.432;2023-02-28T07:10:40;102949.69;;;0.04;69.67
74075;BME280;62428;51.412;5.432;2023-02-28T07:13:06;102959.09;;;0.07;69.06
74075;BME280;62428;51.412;5.432;2023-02-28T07:15:32;102956.75;;;0.12;69.20
74075;BME280;62428;51.412;5.432;2023-02-28T07:17:57;102964.00;;;0.18;67.24
74075;BME280;62428;51.412;5.432;2023-02-28T07:20:23;102959.03;;;0.23;67.17
74075;BME280;62428;51.412;5.432;2023-02-28T07:22:49;102963.19;;;0.26;67.64
74075;BME280;62428;51.412;5.432;2023-02-28T07:25:25;102965.28;;;0.30;66.98
74075;BME280;62428;51.412;5.432;2023-02-28T07:27:51;102964.97;;;0.33;67.17
74075;BME280;62428;51.412;5.432;2023-02-28T07:30:17;102971.53;;;0.37;66.26
74075;BME280;62428;51.412;5.432;2023-02-28T07:32:42;102964.25;;;0.40;65.77
74075;BME280;62428;51.412;5.432;2023-02-28T07:35:08;102962.25;;;0.42;66.55
74075;BME280;62428;51.412;5.432;2023-02-28T07:37:33;102966.88;;;0.48;65.86
74075;BME280;62428;51.412;5.432;2023-02-28T07:40:06;102967.16;;;0.53;66.17
74075;BME280;62428;51.412;5.432;2023-02-28T07:42:37;102962.84;;;0.60;66.13
74075;BME280;62428;51.412;5.432;2023-02-28T07:45:05;102958.88;;;0.64;64.18
74075;BME280;62428;51.412;5.432;2023-02-28T07:47:31;102969.28;;;0.66;64.36
74075;BME280;62428;51.412;5.432;2023-02-28T07:49:57;102964.44;;;0.69;63.90
74075;BME280;62428;51.412;5.432;2023-02-28T07:52:22;102962.47;;;0.71;63.65
74075;BME280;62428;51.412;5.432;2023-02-28T07:54:51;102970.53;;;0.78;63.16
74075;BME280;62428;51.412;5.432;2023-02-28T07:57:17;102980.06;;;0.87;63.36
74075;BME280;62428;51.412;5.432;2023-02-28T07:59:43;102971.94;;;0.97;61.29
74075;BME280;62428;51.412;5.432;2023-02-28T08:02:13;102984.75;;;1.08;61.20
74075;BME280;62428;51.412;5.432;2023-02-28T08:04:38;102979.53;;;1.23;61.60
74075;BME280;62428;51.412;5.432;2023-02-28T08:07:04;102975.56;;;1.42;59.85
74075;BME280;62428;51.412;5.432;2023-02-28T08:09:29;102987.38;;;1.54;59.87
74075;BME280;62428;51.412;5.432;2023-02-28T08:11:55;102981.66;;;1.66;58.51
74075;BME280;62428;51.412;5.432;2023-02-28T08:14:20;102977.47;;;1.71;58.24
74075;BME280;62428;51.412;5.432;2023-02-28T08:16:46;102976.41;;;1.81;56.65
74075;BME280;62428;51.412;5.432;2023-02-28T08:19:11;102985.25;;;1.88;57.24
74075;BME280;62428;51.412;5.432;2023-02-28T08:21:36;102978.59;;;1.92;56.14
74075;BME280;62428;51.412;5.432;2023-02-28T08:24:02;102967.63;;;1.95;55.57
74075;BME280;62428;51.412;5.432;2023-02-28T08:26:27;102972.41;;;2.00;56.28
74075;BME280;62428;51.412;5.432;2023-02-28T08:28:53;102970.66;;;2.07;55.24
74075;BME280;62428;51.412;5.432;2023-02-28T08:31:18;102974.41;;;2.13;55.80
74075;BME280;62428;51.412;5.432;2023-02-28T08:33:44;102977.41;;;2.24;53.19
74075;BME280;62428;51.412;5.432;2023-02-28T08:36:10;102977.78;;;2.36;52.69
74075;BME280;62428;51.412;5.432;2023-02-28T08:38:36;102977.78;;;2.51;52.83
74075;BME280;62428;51.412;5.432;2023-02-28T08:41:05;102977.47;;;2.61;52.37
74075;BME280;62428;51.412;5.432;2023-02-28T08:43:33;102974.09;;;2.67;51.74
74075;BME280;62428;51.412;5.432;2023-02-28T08:45:58;102974.81;;;2.76;50.89
74075;BME280;62428;51.412;5.432;2023-02-28T08:48:28;102980.94;;;2.76;50.01
74075;BME280;62428;51.412;5.432;2023-02-28T08:50:57;102975.91;;;2.81;50.89
74075;BME280;62428;51.412;5.432;2023-02-28T08:53:23;102969.81;;;2.87;49.83
74075;BME280;62428;51.412;5.432;2023-02-28T08:55:59;102974.81;;;2.97;50.37
74075;BME280;62428;51.412;5.432;2023-02-28T08:58:25;102967.31;;;3.01;48.81
74075;BME280;62428;51.412;5.432;2023-02-28T09:00:50;102972.31;;;3.11;49.28
74075;BME280;62428;51.412;5.432;2023-02-28T09:03:16;102972.38;;;3.17;47.93
74075;BME280;62428;51.412;5.432;2023-02-28T09:06:00;102976.16;;;3.08;49.18
74075;BME280;62428;51.412;5.432;2023-02-28T09:08:27;102978.00;;;3.07;47.42
74075;BME280;62428;51.412;5.432;2023-02-28T09:10:53;102969.72;;;2.96;47.83
74075;BME280;62428;51.412;5.432;2023-02-28T09:13:20;102971.22;;;2.83;46.48
74075;BME280;62428;51.412;5.432;2023-02-28T09:15:45;102974.41;;;2.79;47.46
74075;BME280;62428;51.412;5.432;2023-02-28T09:18:11;102976.97;;;2.87;47.54
74075;BME280;62428;51.412;5.432;2023-02-28T09:20:40;102976.13;;;3.01;46.72
74075;BME280;62428;51.412;5.432;2023-02-28T09:23:07;102974.53;;;3.07;45.08
74075;BME280;62428;51.412;5.432;2023-02-28T09:25:34;102980.09;;;3.12;45.80
74075;BME280;62428;51.412;5.432;2023-02-28T09:27:59;102974.03;;;3.18;45.32
74075;BME280;62428;51.412;5.432;2023-02-28T09:30:25;102966.94;;;3.25;44.22
74075;BME280;62428;51.412;5.432;2023-02-28T09:32:50;102975.47;;;3.21;43.71
74075;BME280;62428;51.412;5.432;2023-02-28T09:35:22;102991.13;;;3.31;44.02
74075;BME280;62428;51.412;5.432;2023-02-28T09:37:50;102969.16;;;3.43;42.82
74075;BME280;62428;51.412;5.432;2023-02-28T09:40:17;102966.72;;;3.49;43.59
74075;BME280;62428;51.412;5.432;2023-02-28T09:42:45;102974.56;;;3.57;43.56
74075;BME280;62428;51.412;5.432;2023-02-28T09:45:33;102970.25;;;3.56;44.12
74075;BME280;62428;51.412;5.432;2023-02-28T09:48:27;102965.38;;;3.59;44.46
74075;BME280;62428;51.412;5.432;2023-02-28T09:50:59;102960.06;;;3.59;42.49
74075;BME280;62428;51.412;5.432;2023-02-28T09:53:28;102971.13;;;3.63;41.80
74075;BME280;62428;51.412;5.432;2023-02-28T09:56:01;102964.13;;;3.55;42.58
74075;BME280;62428;51.412;5.432;2023-02-28T09:58:47;102963.94;;;3.57;42.43
74075;BME280;62428;51.412;5.432;2023-02-28T10:06:46;102969.34;;;3.70;42.73
74075;BME280;62428;51.412;5.432;2023-02-28T10:09:18;102957.09;;;3.69;41.60
74075;BME280;62428;51.412;5.432;2023-02-28T10:11:50;102958.34;;;3.73;39.08
74075;BME280;62428;51.412;5.432;2023-02-28T10:14:18;102954.66;;;3.74;40.37
74075;BME280;62428;51.412;5.432;2023-02-28T10:16:57;102962.09;;;3.85;41.14
74075;BME280;62428;51.412;5.432;2023-02-28T10:19:34;102955.38;;;3.90;38.86
74075;BME280;62428;51.412;5.432;2023-02-28T10:22:11;102956.84;;;3.99;41.15
74075;BME280;62428;51.412;5.432;2023-02-28T10:24:41;102958.97;;;4.10;40.09
74075;BME280;62428;51.412;5.432;2023-02-28T10:27:19;102945.47;;;4.12;38.97
74075;BME280;62428;51.412;5.432;2023-02-28T10:29:50;102944.81;;;4.03;39.94
74075;BME280;62428;51.412;5.432;2023-02-28T10:32:24;102948.75;;;4.07;39.99
74075;BME280;62428;51.412;5.432;2023-02-28T10:35:00;102936.13;;;4.22;41.33
74075;BME280;62428;51.412;5.432;2023-02-28T10:37:27;102943.91;;;4.31;39.94
74075;BME280;62428;51.412;5.432;2023-02-28T10:39:53;102939.44;;;4.31;40.20
74075;BME280;62428;51.412;5.432;2023-02-28T10:45:05;102946.19;;;4.34;41.92
74075;BME280;62428;51.412;5.432;2023-02-28T10:47:31;102948.91;;;4.47;41.92
74075;BME280;62428;51.412;5.432;2023-02-28T10:49:58;102940.75;;;4.55;39.90
74075;BME280;62428;51.412;5.432;2023-02-28T10:52:38;102934.66;;;4.68;41.86
74075;BME280;62428;51.412;5.432;2023-02-28T10:55:25;102934.28;;;4.98;40.87
74075;BME280;62428;51.412;5.432;2023-02-28T10:57:52;102932.25;;;5.07;38.37
74075;BME280;62428;51.412;5.432;2023-02-28T11:02:47;102932.03;;;4.88;38.95
74075;BME280;62428;51.412;5.432;2023-02-28T11:05:32;102938.19;;;4.95;39.75
74075;BME280;62428;51.412;5.432;2023-02-28T11:08:19;102924.06;;;4.95;40.56
74075;BME280;62428;51.412;5.432;2023-02-28T11:10:46;102917.50;;;5.04;37.74
74075;BME280;62428;51.412;5.432;2023-02-28T11:13:20;102915.25;;;5.21;38.86
74075;BME280;62428;51.412;5.432;2023-02-28T11:15:52;102923.47;;;5.39;39.81
74075;BME280;62428;51.412;5.432;2023-02-28T11:20:56;102932.50;;;5.52;38.30
74075;BME280;62428;51.412;5.432;2023-02-28T11:23:24;102921.63;;;5.47;37.20
74075;BME280;62428;51.412;5.432;2023-02-28T11:25:52;102923.66;;;5.45;36.88
74075;BME280;62428;51.412;5.432;2023-02-28T11:28:30;102921.03;;;5.31;38.17
74075;BME280;62428;51.412;5.432;2023-02-28T11:33:50;102919.38;;;5.30;37.94
74075;BME280;62428;51.412;5.432;2023-02-28T11:38:50;102901.28;;;5.46;38.03
74075;BME280;62428;51.412;5.432;2023-02-28T11:41:38;102908.91;;;5.55;40.69
74075;BME280;62428;51.412;5.432;2023-02-28T11:46:52;102903.78;;;5.41;38.25
74075;BME280;62428;51.412;5.432;2023-02-28T11:52:08;102894.13;;;5.33;38.96
74075;BME280;62428;51.412;5.432;2023-02-28T12:11:51;102886.88;;;5.80;38.12
74075;BME280;62428;51.412;5.432;2023-02-28T12:19:46;102872.25;;;6.09;37.81
74075;BME280;62428;51.412;5.432;2023-02-28T12:22:28;102873.88;;;6.17;39.78
74075;BME280;62428;51.412;5.432;2023-02-28T12:25:09;102883.50;;;6.25;38.79
74075;BME280;62428;51.412;5.432;2023-02-28T12:27:46;102885.38;;;6.11;38.73
74075;BME280;62428;51.412;5.432;2023-02-28T12:30:24;102868.53;;;6.17;38.91
74075;BME280;62428;51.412;5.432;2023-02-28T12:33:12;102867.31;;;6.13;39.73
74075;BME280;62428;51.412;5.432;2023-02-28T12:35:58;102874.09;;;6.15;40.31
74075;BME280;62428;51.412;5.432;2023-02-28T12:38:27;102880.75;;;6.38;38.10
74075;BME280;62428;51.412;5.432;2023-02-28T12:41:03;102874.09;;;6.54;39.05
74075;BME280;62428;51.412;5.432;2023-02-28T12:43:34;102873.31;;;6.47;38.33
74075;BME280;62428;51.412;5.432;2023-02-28T12:46:09;102868.59;;;6.42;36.23
74075;BME280;62428;51.412;5.432;2023-02-28T12:48:46;102859.47;;;6.25;37.10
74075;BME280;62428;51.412;5.432;2023-02-28T12:51:15;102853.16;;;6.51;37.67
74075;BME280;62428;51.412;5.432;2023-02-28T12:56:36;102855.50;;;6.66;36.51
74075;BME280;62428;51.412;5.432;2023-02-28T12:59:19;102842.84;;;6.54;38.23
74075;BME280;62428;51.412;5.432;2023-02-28T13:09:56;102839.97;;;5.52;39.29
74075;BME280;62428;51.412;5.432;2023-02-28T13:12:23;102833.22;;;5.36;39.07
74075;BME280;62428;51.412;5.432;2023-02-28T13:14:50;102827.72;;;5.31;39.41
74075;BME280;62428;51.412;5.432;2023-02-28T13:17:20;102830.19;;;5.26;39.85
74075;BME280;62428;51.412;5.432;2023-02-28T13:19:57;102813.19;;;5.14;39.60
74075;BME280;62428;51.412;5.432;2023-02-28T13:22:43;102825.88;;;5.12;39.89
74075;BME280;62428;51.412;5.432;2023-02-28T13:27:46;102816.47;;;5.09;39.46
74075;BME280;62428;51.412;5.432;2023-02-28T13:39:00;102811.34;;;4.94;39.83
74075;BME280;62428;51.412;5.432;2023-02-28T13:44:08;102807.41;;;5.30;39.04
74075;BME280;62428;51.412;5.432;2023-02-28T13:49:25;102808.56;;;5.61;38.30
74075;BME280;62428;51.412;5.432;2023-02-28T13:57:44;102808.84;;;6.43;37.35
74075;BME280;62428;51.412;5.432;2023-02-28T14:05:33;102801.78;;;7.24;36.65
74075;BME280;62428;51.412;5.432;2023-02-28T14:08:05;102800.75;;;7.25;35.89
74075;BME280;62428;51.412;5.432;2023-02-28T14:10:33;102809.38;;;7.27;36.14
74075;BME280;62428;51.412;5.432;2023-02-28T14:13:04;102799.88;;;7.50;35.30
74075;BME280;62428;51.412;5.432;2023-02-28T14:15:45;102796.16;;;7.69;35.92
74075;BME280;62428;51.412;5.432;2023-02-28T14:20:43;102798.13;;;8.23;33.71
74075;BME280;62428;51.412;5.432;2023-02-28T14:23:44;102797.91;;;8.55;34.77
74075;BME280;62428;51.412;5.432;2023-02-28T14:31:32;102800.00;;;9.59;33.99
74075;BME280;62428;51.412;5.432;2023-02-28T14:34:21;102789.66;;;9.79;34.74
74075;BME280;62428;51.412;5.432;2023-02-28T14:36:52;102793.28;;;10.14;31.58
74075;BME280;62428;51.412;5.432;2023-02-28T14:39:23;102790.78;;;10.24;32.35
74075;BME280;62428;51.412;5.432;2023-02-28T14:41:50;102792.94;;;10.39;30.98
74075;BME280;62428;51.412;5.432;2023-02-28T14:44:23;102795.41;;;10.74;32.64
74075;BME280;62428;51.412;5.432;2023-02-28T14:46:52;102781.31;;;10.84;31.03
74075;BME280;62428;51.412;5.432;2023-02-28T14:52:07;102783.28;;;11.11;30.34
74075;BME280;62428;51.412;5.432;2023-02-28T14:54:37;102778.56;;;11.40;29.71
74075;BME280;62428;51.412;5.432;2023-02-28T14:57:03;102779.50;;;11.73;29.27
74075;BME280;62428;51.412;5.432;2023-02-28T14:59:33;102771.84;;;12.09;28.89
74075;BME280;62428;51.412;5.432;2023-02-28T15:05:24;102773.19;;;12.11;30.36
74075;BME280;62428;51.412;5.432;2023-02-28T15:10:28;102771.44;;;11.73;28.87
74075;BME280;62428;51.412;5.432;2023-02-28T15:13:02;102780.03;;;11.09;29.16
74075;BME280;62428;51.412;5.432;2023-02-28T15:15:50;102776.19;;;10.83;31.81
74075;BME280;62428;51.412;5.432;2023-02-28T15:21:16;102782.41;;;9.51;31.59
74075;BME280;62428;51.412;5.432;2023-02-28T15:23:45;102780.94;;;9.20;32.31
74075;BME280;62428;51.412;5.432;2023-02-28T15:26:21;102778.34;;;8.78;33.47